sensor_id;sensor_type;location;lat;lon;timestamp;P1;durP1;ratioP1;P2;durP2;ratioP2
20857;SDS011;10589;53.636;10.012;2022-11-20T04:47:16;4.80;;;3.63;;
20857;SDS011;10589;53.636;10.012;2022-11-20T04:49:41;5.33;;;3.60;;
20857;SDS011;10589;53.636;10.012;2022-11-20T04:52:07;4.57;;;3.20;;
20857;SDS011;10589;53.636;10.012;2022-11-20T04:54:32;5.23;;;3.70;;
20857;SDS011;10589;53.636;10.012;2022-11-20T04:56:58;4.93;;;3.70;;
20857;SDS011;10589;53.636;10.012;2022-11-20T04:59:23;5.57;;;3.67;;
20857;SDS011;10589;53.636;10.012;2022-11-20T05:01:49;6.57;;;3.70;;
20857;SDS011;10589;53.636;10.012;2022-11-20T05:04:14;3.73;;;3.30;;
20857;SDS011;10589;53.636;10.012;2022-11-20T05:06:40;4.93;;;3.77;;
20857;SDS011;10589;53.636;10.012;2022-11-20T05:09:05;6.60;;;3.77;;
20857;SDS011;10589;53.636;10.012;2022-11-20T05:11:31;6.50;;;3.77;;
20857;SDS011;10589;53.636;10.012;2022-11-20T05:13:58;6.47;;;3.43;;
20857;SDS011;10589;53.636;10.012;2022-11-20T05:16:24;5.20;;;3.60;;
20857;SDS011;10589;53.636;10.012;2022-11-20T05:18:51;4.83;;;3.30;;
20857;SDS011;10589;53.636;10.012;2022-11-20T05:21:18;6.57;;;3.90;;
20857;SDS011;10589;53.636;10.012;2022-11-20T05:23:44;4.20;;;3.33;;
20857;SDS011;10589;53.636;10.012;2022-11-20T05:26:14;7.47;;;3.90;;
20857;SDS011;10589;53.636;10.012;2022-11-20T05:28:46;6.67;;;3.70;;
20857;SDS011;10589;53.636;10.012;2022-11-20T05:31:22;4.73;;;3.53;;
20857;SDS011;10589;53.636;10.012;2022-11-20T05:33:48;5.60;;;3.70;;
20857;SDS011;10589;53.636;10.012;2022-11-20T05:36:14;5.30;;;3.50;;
20857;SDS011;10589;53.636;10.012;2022-11-20T05:38:41;5.53;;;3.60;;
20857;SDS011;10589;53.636;10.012;2022-11-20T05:41:09;7.57;;;3.60;;
20857;SDS011;10589;53.636;10.012;2022-11-20T05:43:36;4.60;;;3.47;;
20857;SDS011;10589;53.636;10.012;2022-11-20T05:46:03;6.13;;;4.43;;
20857;SDS011;10589;53.636;10.012;2022-11-20T05:48:30;5.13;;;3.70;;
20857;SDS011;10589;53.636;10.012;2022-11-20T05:50:57;5.30;;;3.97;;
20857;SDS011;10589;53.636;10.012;2022-11-20T05:53:24;8.50;;;4.00;;
20857;SDS011;10589;53.636;10.012;2022-11-20T05:55:59;6.70;;;4.00;;
20857;SDS011;10589;53.636;10.012;2022-11-20T05:58:26;5.60;;;4.40;;
20857;SDS011;10589;53.636;10.012;2022-11-20T06:00:52;8.80;;;4.27;;
20857;SDS011;10589;53.636;10.012;2022-11-20T06:03:18;7.40;;;4.60;;
20857;SDS011;10589;53.636;10.012;2022-11-20T06:05:44;6.27;;;4.53;;
20857;SDS011;10589;53.636;10.012;2022-11-20T06:08:10;8.93;;;4.43;;
20857;SDS011;10589;53.636;10.012;2022-11-20T06:10:35;6.30;;;4.77;;
20857;SDS011;10589;53.636;10.012;2022-11-20T06:13:01;5.80;;;4.70;;
20857;SDS011;10589;53.636;10.012;2022-11-20T06:15:26;5.97;;;4.87;;
20857;SDS011;10589;53.636;10.012;2022-11-20T06:17:52;6.77;;;4.60;;
20857;SDS011;10589;53.636;10.012;2022-11-20T06:20:19;7.40;;;4.97;;
20857;SDS011;10589;53.636;10.012;2022-11-20T06:22:45;7.33;;;5.33;;
20857;SDS011;10589;53.636;10.012;2022-11-20T06:25:10;5.40;;;4.73;;
20857;SDS011;10589;53.636;10.012;2022-11-20T06:27:36;6.70;;;4.60;;
20857;SDS011;10589;53.636;10.012;2022-11-20T06:30:02;8.37;;;5.00;;
20857;SDS011;10589;53.636;10.012;2022-11-20T06:32:28;6.57;;;5.00;;
20857;SDS011;10589;53.636;10.012;2022-11-20T06:34:54;6.93;;;5.10;;
20857;SDS011;10589;53.636;10.012;2022-11-20T06:37:20;8.30;;;5.17;;
20857;SDS011;10589;53.636;10.012;2022-11-20T06:39:45;5.50;;;4.70;;
20857;SDS011;10589;53.636;10.012;2022-11-20T06:42:11;6.07;;;5.30;;
20857;SDS011;10589;53.636;10.012;2022-11-20T06:44:36;7.33;;;4.97;;
20857;SDS011;10589;53.636;10.012;2022-11-20T06:47:02;7.27;;;5.47;;
20857;SDS011;10589;53.636;10.012;2022-11-20T06:49:28;7.83;;;5.10;;
20857;SDS011;10589;53.636;10.012;2022-11-20T06:51:53;6.80;;;4.87;;
20857;SDS011;10589;53.636;10.012;2022-11-20T06:54:19;6.43;;;4.80;;
20857;SDS011;10589;53.636;10.012;2022-11-20T06:56:47;8.37;;;5.30;;
20857;SDS011;10589;53.636;10.012;2022-11-20T06:59:13;8.93;;;5.80;;
20857;SDS011;10589;53.636;10.012;2022-11-20T07:01:39;8.40;;;6.17;;
20857;SDS011;10589;53.636;10.012;2022-11-20T07:04:05;8.17;;;5.70;;
20857;SDS011;10589;53.636;10.012;2022-11-20T07:06:30;7.83;;;5.90;;
20857;SDS011;10589;53.636;10.012;2022-11-20T07:08:56;8.83;;;6.50;;
20857;SDS011;10589;53.636;10.012;2022-11-20T07:11:22;6.97;;;5.87;;
20857;SDS011;10589;53.636;10.012;2022-11-20T07:13:48;6.67;;;5.83;;
20857;SDS011;10589;53.636;10.012;2022-11-20T07:16:14;8.97;;;6.20;;
20857;SDS011;10589;53.636;10.012;2022-11-20T07:18:40;6.83;;;5.40;;
20857;SDS011;10589;53.636;10.012;2022-11-20T07:21:07;9.03;;;6.37;;
20857;SDS011;10589;53.636;10.012;2022-11-20T07:23:34;6.27;;;5.33;;
20857;SDS011;10589;53.636;10.012;2022-11-20T07:26:07;6.60;;;5.60;;
20857;SDS011;10589;53.636;10.012;2022-11-20T07:28:34;10.80;;;5.80;;
20857;SDS011;10589;53.636;10.012;2022-11-20T07:31:00;8.10;;;5.80;;
20857;SDS011;10589;53.636;10.012;2022-11-20T07:33:26;6.83;;;5.27;;
20857;SDS011;10589;53.636;10.012;2022-11-20T07:35:51;6.67;;;5.20;;
20857;SDS011;10589;53.636;10.012;2022-11-20T07:38:17;7.17;;;5.63;;
20857;SDS011;10589;53.636;10.012;2022-11-20T07:40:42;6.97;;;5.43;;
20857;SDS011;10589;53.636;10.012;2022-11-20T07:43:08;7.17;;;5.00;;
20857;SDS011;10589;53.636;10.012;2022-11-20T07:45:33;8.00;;;4.90;;
20857;SDS011;10589;53.636;10.012;2022-11-20T07:47:59;5.83;;;4.90;;
20857;SDS011;10589;53.636;10.012;2022-11-20T07:50:25;7.60;;;5.07;;
20857;SDS011;10589;53.636;10.012;2022-11-20T07:52:50;5.80;;;4.40;;
20857;SDS011;10589;53.636;10.012;2022-11-20T07:55:17;6.00;;;4.73;;
20857;SDS011;10589;53.636;10.012;2022-11-20T07:57:42;7.70;;;4.30;;
20857;SDS011;10589;53.636;10.012;2022-11-20T08:00:09;6.63;;;4.77;;
20857;SDS011;10589;53.636;10.012;2022-11-20T08:02:36;5.20;;;4.23;;
20857;SDS011;10589;53.636;10.012;2022-11-20T08:05:03;5.67;;;4.50;;
20857;SDS011;10589;53.636;10.012;2022-11-20T08:07:34;7.03;;;4.30;;
20857;SDS011;10589;53.636;10.012;2022-11-20T08:10:07;5.60;;;4.40;;
20857;SDS011;10589;53.636;10.012;2022-11-20T08:12:34;6.07;;;4.70;;
20857;SDS011;10589;53.636;10.012;2022-11-20T08:15:18;5.13;;;4.40;;
20857;SDS011;10589;53.636;10.012;2022-11-20T08:17:44;5.53;;;4.07;;
20857;SDS011;10589;53.636;10.012;2022-11-20T08:20:10;5.07;;;4.13;;
20857;SDS011;10589;53.636;10.012;2022-11-20T08:22:36;5.87;;;4.30;;
20857;SDS011;10589;53.636;10.012;2022-11-20T08:25:01;5.60;;;4.50;;
20857;SDS011;10589;53.636;10.012;2022-11-20T08:27:27;5.13;;;4.37;;
20857;SDS011;10589;53.636;10.012;2022-11-20T08:29:53;6.53;;;4.40;;
20857;SDS011;10589;53.636;10.012;2022-11-20T08:32:18;5.87;;;4.77;;
20857;SDS011;10589;53.636;10.012;2022-11-20T08:34:44;6.87;;;4.30;;
20857;SDS011;10589;53.636;10.012;2022-11-20T08:37:09;7.73;;;4.50;;
20857;SDS011;10589;53.636;10.012;2022-11-20T08:39:35;5.10;;;4.10;;
20857;SDS011;10589;53.636;10.012;2022-11-20T08:42:00;5.20;;;4.40;;
20857;SDS011;10589;53.636;10.012;2022-11-20T08:44:26;4.37;;;3.70;;
20857;SDS011;10589;53.636;10.012;2022-11-20T08:46:52;4.50;;;3.73;;
20857;SDS011;10589;53.636;10.012;2022-11-20T08:49:17;5.57;;;4.20;;
20857;SDS011;10589;53.636;10.012;2022-11-20T08:51:43;5.37;;;4.27;;
20857;SDS011;10589;53.636;10.012;2022-11-20T08:54:09;5.90;;;4.40;;
20857;SDS011;10589;53.636;10.012;2022-11-20T08:56:35;4.63;;;4.13;;
20857;SDS011;10589;53.636;10.012;2022-11-20T08:59:01;5.13;;;4.40;;
20857;SDS011;10589;53.636;10.012;2022-11-20T09:01:27;6.53;;;4.23;;
20857;SDS011;10589;53.636;10.012;2022-11-20T09:03:57;6.67;;;4.63;;
20857;SDS011;10589;53.636;10.012;2022-11-20T09:06:24;7.40;;;4.50;;
20857;SDS011;10589;53.636;10.012;2022-11-20T09:08:53;6.07;;;4.20;;
20857;SDS011;10589;53.636;10.012;2022-11-20T09:11:19;5.50;;;4.33;;
20857;SDS011;10589;53.636;10.012;2022-11-20T09:13:45;5.13;;;4.30;;
20857;SDS011;10589;53.636;10.012;2022-11-20T09:16:11;6.60;;;4.63;;
20857;SDS011;10589;53.636;10.012;2022-11-20T09:18:36;6.20;;;4.43;;
20857;SDS011;10589;53.636;10.012;2022-11-20T09:21:03;7.43;;;4.40;;
20857;SDS011;10589;53.636;10.012;2022-11-20T09:23:31;6.83;;;4.77;;
20857;SDS011;10589;53.636;10.012;2022-11-20T09:26:01;5.33;;;4.00;;
20857;SDS011;10589;53.636;10.012;2022-11-20T09:28:27;5.47;;;4.37;;
20857;SDS011;10589;53.636;10.012;2022-11-20T09:30:53;8.63;;;4.40;;
20857;SDS011;10589;53.636;10.012;2022-11-20T09:33:18;5.80;;;4.10;;
20857;SDS011;10589;53.636;10.012;2022-11-20T09:35:44;5.27;;;4.17;;
20857;SDS011;10589;53.636;10.012;2022-11-20T09:38:10;4.63;;;4.07;;
20857;SDS011;10589;53.636;10.012;2022-11-20T09:40:38;4.33;;;3.63;;
20857;SDS011;10589;53.636;10.012;2022-11-20T09:46:21;5.07;;;3.67;;
20857;SDS011;10589;53.636;10.012;2022-11-20T09:51:57;3.63;;;3.23;;
20857;SDS011;10589;53.636;10.012;2022-11-20T09:54:35;4.93;;;3.50;;
20857;SDS011;10589;53.636;10.012;2022-11-20T09:57:21;5.00;;;4.03;;
20857;SDS011;10589;53.636;10.012;2022-11-20T09:59:51;4.87;;;3.60;;
20857;SDS011;10589;53.636;10.012;2022-11-20T10:04:53;5.03;;;3.93;;
20857;SDS011;10589;53.636;10.012;2022-11-20T10:07:37;6.47;;;3.40;;
20857;SDS011;10589;53.636;10.012;2022-11-20T10:10:15;3.60;;;3.30;;
20857;SDS011;10589;53.636;10.012;2022-11-20T10:15:21;5.63;;;2.97;;
20857;SDS011;10589;53.636;10.012;2022-11-20T10:31:37;3.37;;;3.03;;
20857;SDS011;10589;53.636;10.012;2022-11-20T10:37:00;4.10;;;3.00;;
20857;SDS011;10589;53.636;10.012;2022-11-20T10:42:14;3.70;;;2.90;;
20857;SDS011;10589;53.636;10.012;2022-11-20T10:44:57;5.00;;;3.17;;
20857;SDS011;10589;53.636;10.012;2022-11-20T10:47:35;6.30;;;3.27;;
20857;SDS011;10589;53.636;10.012;2022-11-20T10:50:02;4.83;;;3.00;;
20857;SDS011;10589;53.636;10.012;2022-11-20T10:55:17;3.67;;;3.03;;
20857;SDS011;10589;53.636;10.012;2022-11-20T10:58:14;3.40;;;2.83;;
20857;SDS011;10589;53.636;10.012;2022-11-20T11:00:47;5.30;;;2.90;;
20857;SDS011;10589;53.636;10.012;2022-11-20T11:05:59;4.40;;;3.63;;
20857;SDS011;10589;53.636;10.012;2022-11-20T11:08:36;4.37;;;3.27;;
20857;SDS011;10589;53.636;10.012;2022-11-20T11:13:49;3.87;;;3.00;;
20857;SDS011;10589;53.636;10.012;2022-11-20T11:16:19;4.90;;;2.73;;
20857;SDS011;10589;53.636;10.012;2022-11-20T11:18:49;4.93;;;3.00;;
20857;SDS011;10589;53.636;10.012;2022-11-20T11:21:22;3.60;;;2.77;;
20857;SDS011;10589;53.636;10.012;2022-11-20T11:23:57;2.90;;;2.50;;
20857;SDS011;10589;53.636;10.012;2022-11-20T11:26:27;2.60;;;2.40;;
20857;SDS011;10589;53.636;10.012;2022-11-20T11:29:00;3.67;;;2.70;;
20857;SDS011;10589;53.636;10.012;2022-11-20T11:31:28;2.80;;;2.60;;
20857;SDS011;10589;53.636;10.012;2022-11-20T11:34:10;2.60;;;2.40;;
20857;SDS011;10589;53.636;10.012;2022-11-20T11:36:40;3.00;;;2.47;;
20857;SDS011;10589;53.636;10.012;2022-11-20T11:39:10;3.30;;;2.57;;
20857;SDS011;10589;53.636;10.012;2022-11-20T11:41:39;2.90;;;2.30;;
20857;SDS011;10589;53.636;10.012;2022-11-20T11:44:16;2.73;;;2.43;;
20857;SDS011;10589;53.636;10.012;2022-11-20T11:47:08;3.30;;;3.00;;
20857;SDS011;10589;53.636;10.012;2022-11-20T11:49:42;2.40;;;2.20;;
20857;SDS011;10589;53.636;10.012;2022-11-20T11:52:18;2.40;;;2.10;;
20857;SDS011;10589;53.636;10.012;2022-11-20T11:57:26;3.13;;;2.63;;
20857;SDS011;10589;53.636;10.012;2022-11-20T12:00:17;2.13;;;1.93;;
20857;SDS011;10589;53.636;10.012;2022-11-20T12:08:13;2.17;;;1.87;;
20857;SDS011;10589;53.636;10.012;2022-11-20T12:15:58;2.40;;;2.20;;
20857;SDS011;10589;53.636;10.012;2022-11-20T12:18:25;2.77;;;2.23;;
20857;SDS011;10589;53.636;10.012;2022-11-20T12:34:26;2.70;;;2.10;;
20857;SDS011;10589;53.636;10.012;2022-11-20T12:40:23;2.60;;;2.23;;
20857;SDS011;10589;53.636;10.012;2022-11-20T12:48:59;2.80;;;2.50;;
20857;SDS011;10589;53.636;10.012;2022-11-20T12:54:50;2.63;;;1.87;;
20857;SDS011;10589;53.636;10.012;2022-11-20T12:57:29;3.03;;;2.53;;
20857;SDS011;10589;53.636;10.012;2022-11-20T13:00:15;2.50;;;2.30;;
20857;SDS011;10589;53.636;10.012;2022-11-20T13:05:21;2.43;;;2.23;;
20857;SDS011;10589;53.636;10.012;2022-11-20T13:07:55;3.00;;;2.70;;
20857;SDS011;10589;53.636;10.012;2022-11-20T13:16:29;3.77;;;2.60;;
20857;SDS011;10589;53.636;10.012;2022-11-20T13:18:56;2.40;;;2.20;;
20857;SDS011;10589;53.636;10.012;2022-11-20T13:24:05;2.67;;;2.40;;
20857;SDS011;10589;53.636;10.012;2022-11-20T13:26:31;3.93;;;3.30;;
20857;SDS011;10589;53.636;10.012;2022-11-20T13:29:10;2.87;;;2.27;;
20857;SDS011;10589;53.636;10.012;2022-11-20T13:31:42;2.27;;;1.97;;
20857;SDS011;10589;53.636;10.012;2022-11-20T13:34:12;2.40;;;2.20;;
20857;SDS011;10589;53.636;10.012;2022-11-20T13:36:50;2.40;;;2.20;;
20857;SDS011;10589;53.636;10.012;2022-11-20T13:39:30;2.47;;;2.27;;
20857;SDS011;10589;53.636;10.012;2022-11-20T13:42:20;2.33;;;1.93;;
20857;SDS011;10589;53.636;10.012;2022-11-20T13:45:00;2.97;;;2.60;;
20857;SDS011;10589;53.636;10.012;2022-11-20T13:47:28;3.43;;;2.60;;
20857;SDS011;10589;53.636;10.012;2022-11-20T13:49:57;3.47;;;2.43;;
20857;SDS011;10589;53.636;10.012;2022-11-20T13:57:58;2.50;;;2.30;;
20857;SDS011;10589;53.636;10.012;2022-11-20T14:00:58;3.97;;;2.60;;
20857;SDS011;10589;53.636;10.012;2022-11-20T14:03:32;3.20;;;2.70;;
20857;SDS011;10589;53.636;10.012;2022-11-20T14:06:01;5.20;;;2.57;;
20857;SDS011;10589;53.636;10.012;2022-11-20T14:08:39;9.43;;;2.30;;
20857;SDS011;10589;53.636;10.012;2022-11-20T14:14:04;3.77;;;2.13;;
20857;SDS011;10589;53.636;10.012;2022-11-20T14:16:40;2.50;;;1.97;;
20857;SDS011;10589;53.636;10.012;2022-11-20T14:19:22;2.60;;;2.33;;
20857;SDS011;10589;53.636;10.012;2022-11-20T14:22:07;4.00;;;2.10;;
20857;SDS011;10589;53.636;10.012;2022-11-20T14:25:00;3.47;;;2.57;;
20857;SDS011;10589;53.636;10.012;2022-11-20T14:27:50;3.03;;;2.27;;
20857;SDS011;10589;53.636;10.012;2022-11-20T14:30:19;4.67;;;2.50;;
20857;SDS011;10589;53.636;10.012;2022-11-20T14:32:48;3.70;;;2.77;;
20857;SDS011;10589;53.636;10.012;2022-11-20T14:35:15;3.07;;;2.53;;
20857;SDS011;10589;53.636;10.012;2022-11-20T14:37:46;3.87;;;2.83;;
20857;SDS011;10589;53.636;10.012;2022-11-20T14:42:47;3.50;;;2.90;;
20857;SDS011;10589;53.636;10.012;2022-11-20T14:45:13;3.47;;;2.70;;
20857;SDS011;10589;53.636;10.012;2022-11-20T14:47:40;4.03;;;2.80;;
20857;SDS011;10589;53.636;10.012;2022-11-20T14:50:08;3.03;;;2.50;;
20857;SDS011;10589;53.636;10.012;2022-11-20T14:52:49;4.30;;;2.77;;
20857;SDS011;10589;53.636;10.012;2022-11-20T14:55:24;4.50;;;2.87;;
20857;SDS011;10589;53.636;10.012;2022-11-20T14:58:18;5.43;;;3.73;;
20857;SDS011;10589;53.636;10.012;2022-11-20T15:00:59;5.53;;;4.20;;
20857;SDS011;10589;53.636;10.012;2022-11-20T15:05:59;4.70;;;4.00;;
20857;SDS011;10589;53.636;10.012;2022-11-20T15:08:25;4.23;;;3.53;;
20857;SDS011;10589;53.636;10.012;2022-11-20T15:10:51;5.20;;;3.80;;
20857;SDS011;10589;53.636;10.012;2022-11-20T15:13:20;5.30;;;3.87;;
20857;SDS011;10589;53.636;10.012;2022-11-20T15:15:55;5.20;;;3.53;;
20857;SDS011;10589;53.636;10.012;2022-11-20T15:20:50;7.30;;;4.07;;
20857;SDS011;10589;53.636;10.012;2022-11-20T15:23:17;5.97;;;3.63;;
20857;SDS011;10589;53.636;10.012;2022-11-20T15:25:43;4.23;;;3.47;;
20857;SDS011;10589;53.636;10.012;2022-11-20T15:28:13;5.10;;;4.10;;
20857;SDS011;10589;53.636;10.012;2022-11-20T15:30:48;6.30;;;3.73;;
20857;SDS011;10589;53.636;10.012;2022-11-20T15:33:15;3.83;;;2.97;;
20857;SDS011;10589;53.636;10.012;2022-11-20T15:35:41;3.43;;;2.80;;
20857;SDS011;10589;53.636;10.012;2022-11-20T15:38:07;3.80;;;2.67;;
20857;SDS011;10589;53.636;10.012;2022-11-20T15:40:33;3.20;;;2.87;;
20857;SDS011;10589;53.636;10.012;2022-11-20T15:42:58;3.23;;;2.90;;
20857;SDS011;10589;53.636;10.012;2022-11-20T15:45:37;3.57;;;2.73;;
20857;SDS011;10589;53.636;10.012;2022-11-20T15:48:08;4.10;;;3.13;;
20857;SDS011;10589;53.636;10.012;2022-11-20T15:50:38;4.70;;;3.43;;
20857;SDS011;10589;53.636;10.012;2022-11-20T15:53:09;4.80;;;3.53;;
20857;SDS011;10589;53.636;10.012;2022-11-20T15:55:35;3.97;;;3.00;;
20857;SDS011;10589;53.636;10.012;2022-11-20T15:58:00;3.70;;;2.53;;
20857;SDS011;10589;53.636;10.012;2022-11-20T16:00:26;3.90;;;3.07;;
20857;SDS011;10589;53.636;10.012;2022-11-20T16:02:53;4.77;;;4.27;;
20857;SDS011;10589;53.636;10.012;2022-11-20T16:05:19;6.67;;;4.27;;
20857;SDS011;10589;53.636;10.012;2022-11-20T16:07:44;6.27;;;3.70;;
20857;SDS011;10589;53.636;10.012;2022-11-20T16:10:10;5.67;;;4.27;;
20857;SDS011;10589;53.636;10.012;2022-11-20T16:12:36;6.40;;;4.57;;
20857;SDS011;10589;53.636;10.012;2022-11-20T16:15:20;8.67;;;5.37;;
20857;SDS011;10589;53.636;10.012;2022-11-20T16:18:04;6.97;;;5.77;;
20857;SDS011;10589;53.636;10.012;2022-11-20T16:20:30;7.10;;;4.90;;
20857;SDS011;10589;53.636;10.012;2022-11-20T16:22:55;5.40;;;4.37;;
20857;SDS011;10589;53.636;10.012;2022-11-20T16:25:21;6.23;;;4.10;;
20857;SDS011;10589;53.636;10.012;2022-11-20T16:27:46;8.60;;;5.30;;
20857;SDS011;10589;53.636;10.012;2022-11-20T16:30:12;5.60;;;4.67;;
20857;SDS011;10589;53.636;10.012;2022-11-20T16:32:38;8.23;;;4.53;;
20857;SDS011;10589;53.636;10.012;2022-11-20T16:35:03;9.90;;;6.27;;
20857;SDS011;10589;53.636;10.012;2022-11-20T16:37:29;8.80;;;5.73;;
20857;SDS011;10589;53.636;10.012;2022-11-20T16:39:55;10.73;;;8.70;;
20857;SDS011;10589;53.636;10.012;2022-11-20T16:42:21;9.23;;;6.70;;
20857;SDS011;10589;53.636;10.012;2022-11-20T16:44:47;8.23;;;5.33;;
20857;SDS011;10589;53.636;10.012;2022-11-20T16:47:12;7.63;;;5.43;;
20857;SDS011;10589;53.636;10.012;2022-11-20T16:49:38;8.37;;;5.57;;
20857;SDS011;10589;53.636;10.012;2022-11-20T16:52:03;6.70;;;5.30;;
20857;SDS011;10589;53.636;10.012;2022-11-20T16:54:29;8.90;;;5.20;;
20857;SDS011;10589;53.636;10.012;2022-11-20T16:56:55;8.87;;;5.20;;
20857;SDS011;10589;53.636;10.012;2022-11-20T16:59:20;6.43;;;5.27;;
20857;SDS011;10589;53.636;10.012;2022-11-20T17:01:46;8.20;;;5.63;;
20857;SDS011;10589;53.636;10.012;2022-11-20T17:04:12;8.67;;;6.43;;
20857;SDS011;10589;53.636;10.012;2022-11-20T17:06:38;7.97;;;6.23;;
20857;SDS011;10589;53.636;10.012;2022-11-20T17:09:08;10.17;;;7.23;;
20857;SDS011;10589;53.636;10.012;2022-11-20T17:11:34;9.83;;;6.83;;
20857;SDS011;10589;53.636;10.012;2022-11-20T17:14:00;8.83;;;6.73;;
20857;SDS011;10589;53.636;10.012;2022-11-20T17:16:28;9.27;;;7.77;;
20857;SDS011;10589;53.636;10.012;2022-11-20T17:18:54;8.83;;;7.30;;
20857;SDS011;10589;53.636;10.012;2022-11-20T17:21:21;11.27;;;8.40;;
20857;SDS011;10589;53.636;10.012;2022-11-20T17:23:46;11.03;;;7.17;;
20857;SDS011;10589;53.636;10.012;2022-11-20T17:26:19;8.17;;;6.10;;
20857;SDS011;10589;53.636;10.012;2022-11-20T17:28:54;9.23;;;7.07;;
20857;SDS011;10589;53.636;10.012;2022-11-20T17:31:23;11.97;;;7.17;;
20857;SDS011;10589;53.636;10.012;2022-11-20T17:33:48;9.63;;;6.40;;
20857;SDS011;10589;53.636;10.012;2022-11-20T17:36:15;9.57;;;6.93;;
20857;SDS011;10589;53.636;10.012;2022-11-20T17:38:41;9.00;;;7.50;;
20857;SDS011;10589;53.636;10.012;2022-11-20T17:41:15;12.70;;;8.63;;
20857;SDS011;10589;53.636;10.012;2022-11-20T17:43:46;12.63;;;8.83;;
20857;SDS011;10589;53.636;10.012;2022-11-20T17:46:13;13.70;;;8.47;;
20857;SDS011;10589;53.636;10.012;2022-11-20T17:48:40;11.87;;;8.67;;
20857;SDS011;10589;53.636;10.012;2022-11-20T17:51:08;12.37;;;8.43;;
20857;SDS011;10589;53.636;10.012;2022-11-20T17:53:35;11.67;;;7.93;;
20857;SDS011;10589;53.636;10.012;2022-11-20T17:56:04;11.07;;;8.20;;
20857;SDS011;10589;53.636;10.012;2022-11-20T17:58:49;11.40;;;7.17;;
20857;SDS011;10589;53.636;10.012;2022-11-20T18:01:15;9.53;;;7.27;;
20857;SDS011;10589;53.636;10.012;2022-11-20T18:03:41;8.23;;;7.40;;
20857;SDS011;10589;53.636;10.012;2022-11-20T18:06:10;9.13;;;6.60;;
20857;SDS011;10589;53.636;10.012;2022-11-20T18:08:36;8.87;;;6.63;;
20857;SDS011;10589;53.636;10.012;2022-11-20T18:11:13;8.83;;;6.90;;
20857;SDS011;10589;53.636;10.012;2022-11-20T18:13:48;9.13;;;6.77;;
20857;SDS011;10589;53.636;10.012;2022-11-20T18:16:35;9.00;;;6.67;;
20857;SDS011;10589;53.636;10.012;2022-11-20T18:19:03;8.10;;;6.90;;
20857;SDS011;10589;53.636;10.012;2022-11-20T18:21:29;9.70;;;6.97;;
20857;SDS011;10589;53.636;10.012;2022-11-20T18:23:55;9.53;;;7.03;;
20857;SDS011;10589;53.636;10.012;2022-11-20T18:26:22;7.93;;;6.63;;
20857;SDS011;10589;53.636;10.012;2022-11-20T18:28:49;10.67;;;7.23;;
20857;SDS011;10589;53.636;10.012;2022-11-20T18:31:15;10.30;;;7.83;;
20857;SDS011;10589;53.636;10.012;2022-11-20T18:33:41;9.73;;;7.53;;
20857;SDS011;10589;53.636;10.012;2022-11-20T18:36:08;12.03;;;8.60;;
20857;SDS011;10589;53.636;10.012;2022-11-20T18:38:41;14.03;;;10.73;;
20857;SDS011;10589;53.636;10.012;2022-11-20T18:41:11;11.63;;;9.30;;
20857;SDS011;10589;53.636;10.012;2022-11-20T18:43:57;12.37;;;9.90;;
20857;SDS011;10589;53.636;10.012;2022-11-20T18:46:42;12.87;;;9.10;;
20857;SDS011;10589;53.636;10.012;2022-11-20T18:49:08;12.60;;;9.33;;
20857;SDS011;10589;53.636;10.012;2022-11-20T18:51:35;10.40;;;8.70;;
20857;SDS011;10589;53.636;10.012;2022-11-20T18:54:01;11.23;;;9.60;;
20857;SDS011;10589;53.636;10.012;2022-11-20T18:56:27;12.10;;;9.73;;
20857;SDS011;10589;53.636;10.012;2022-11-20T18:58:53;16.37;;;9.53;;
20857;SDS011;10589;53.636;10.012;2022-11-20T19:01:19;13.07;;;10.00;;
20857;SDS011;10589;53.636;10.012;2022-11-20T19:03:44;12.10;;;8.90;;
20857;SDS011;10589;53.636;10.012;2022-11-20T19:06:14;11.47;;;8.33;;
20857;SDS011;10589;53.636;10.012;2022-11-20T19:08:40;10.87;;;7.87;;
20857;SDS011;10589;53.636;10.012;2022-11-20T19:11:07;10.23;;;8.10;;
20857;SDS011;10589;53.636;10.012;2022-11-20T19:13:34;10.60;;;7.77;;
20857;SDS011;10589;53.636;10.012;2022-11-20T19:16:03;10.37;;;8.60;;
20857;SDS011;10589;53.636;10.012;2022-11-20T19:18:41;11.93;;;8.77;;
20857;SDS011;10589;53.636;10.012;2022-11-20T19:21:11;9.87;;;8.33;;
20857;SDS011;10589;53.636;10.012;2022-11-20T19:23:41;12.40;;;8.87;;
20857;SDS011;10589;53.636;10.012;2022-11-20T19:26:07;12.27;;;10.87;;
20857;SDS011;10589;53.636;10.012;2022-11-20T19:28:33;14.17;;;10.83;;
20857;SDS011;10589;53.636;10.012;2022-11-20T19:33:29;15.70;;;12.00;;
20857;SDS011;10589;53.636;10.012;2022-11-20T19:35:55;17.03;;;10.90;;
20857;SDS011;10589;53.636;10.012;2022-11-20T19:38:22;17.07;;;11.13;;
20857;SDS011;10589;53.636;10.012;2022-11-20T19:40:49;18.43;;;11.17;;
20857;SDS011;10589;53.636;10.012;2022-11-20T19:43:15;14.67;;;11.37;;
20857;SDS011;10589;53.636;10.012;2022-11-20T19:45:41;17.17;;;11.83;;
20857;SDS011;10589;53.636;10.012;2022-11-20T19:48:07;16.77;;;12.07;;
20857;SDS011;10589;53.636;10.012;2022-11-20T19:50:32;15.20;;;11.20;;
20857;SDS011;10589;53.636;10.012;2022-11-20T19:52:58;18.27;;;12.07;;
20857;SDS011;10589;53.636;10.012;2022-11-20T19:55:23;16.53;;;11.60;;
20857;SDS011;10589;53.636;10.012;2022-11-20T19:57:49;15.33;;;11.40;;
20857;SDS011;10589;53.636;10.012;2022-11-20T20:00:15;15.73;;;11.53;;
20857;SDS011;10589;53.636;10.012;2022-11-20T20:02:41;15.20;;;12.17;;
20857;SDS011;10589;53.636;10.012;2022-11-20T20:05:06;16.80;;;11.57;;
20857;SDS011;10589;53.636;10.012;2022-11-20T20:07:32;15.03;;;11.40;;
20857;SDS011;10589;53.636;10.012;2022-11-20T20:09:58;16.63;;;11.90;;
20857;SDS011;10589;53.636;10.012;2022-11-20T20:12:23;15.63;;;12.10;;
20857;SDS011;10589;53.636;10.012;2022-11-20T20:14:49;15.50;;;11.60;;
20857;SDS011;10589;53.636;10.012;2022-11-20T20:17:15;15.23;;;12.23;;
20857;SDS011;10589;53.636;10.012;2022-11-20T20:19:40;16.23;;;12.20;;
20857;SDS011;10589;53.636;10.012;2022-11-20T20:22:06;21.20;;;15.03;;
20857;SDS011;10589;53.636;10.012;2022-11-20T20:24:31;16.70;;;12.20;;
20857;SDS011;10589;53.636;10.012;2022-11-20T20:26:57;17.53;;;12.90;;
20857;SDS011;10589;53.636;10.012;2022-11-20T20:29:22;17.37;;;13.50;;
20857;SDS011;10589;53.636;10.012;2022-11-20T20:31:48;17.37;;;13.27;;
20857;SDS011;10589;53.636;10.012;2022-11-20T20:34:13;17.10;;;12.20;;
20857;SDS011;10589;53.636;10.012;2022-11-20T20:36:40;17.27;;;12.40;;
20857;SDS011;10589;53.636;10.012;2022-11-20T20:39:05;15.03;;;12.40;;
20857;SDS011;10589;53.636;10.012;2022-11-20T20:41:31;17.57;;;12.17;;
20857;SDS011;10589;53.636;10.012;2022-11-20T20:43:57;16.67;;;13.13;;
20857;SDS011;10589;53.636;10.012;2022-11-20T20:46:41;17.40;;;12.47;;
20857;SDS011;10589;53.636;10.012;2022-11-20T20:49:07;18.97;;;13.30;;
20857;SDS011;10589;53.636;10.012;2022-11-20T20:51:33;16.23;;;12.53;;
20857;SDS011;10589;53.636;10.012;2022-11-20T20:53:59;19.40;;;13.77;;
20857;SDS011;10589;53.636;10.012;2022-11-20T20:56:25;17.97;;;13.43;;
20857;SDS011;10589;53.636;10.012;2022-11-20T20:58:51;18.97;;;13.73;;
20857;SDS011;10589;53.636;10.012;2022-11-20T21:01:17;21.27;;;13.93;;
20857;SDS011;10589;53.636;10.012;2022-11-20T21:03:43;21.20;;;14.07;;
20857;SDS011;10589;53.636;10.012;2022-11-20T21:06:10;19.90;;;13.70;;
20857;SDS011;10589;53.636;10.012;2022-11-20T21:08:36;21.20;;;13.73;;
20857;SDS011;10589;53.636;10.012;2022-11-20T21:11:06;21.53;;;14.73;;
20857;SDS011;10589;53.636;10.012;2022-11-20T21:13:33;22.70;;;14.73;;
20857;SDS011;10589;53.636;10.012;2022-11-20T21:16:00;21.57;;;14.83;;